sensor_id;sensor_type;location;lat;lon;timestamp;P1;durP1;ratioP1;P2;durP2;ratioP2
47625;SDS011;33342;45.574;9.252;2022-11-03T00:01:44;52.88;;;36.63;;
47625;SDS011;33342;45.574;9.252;2022-11-03T00:04:14;49.53;;;35.25;;
47625;SDS011;33342;45.574;9.252;2022-11-03T00:06:43;51.22;;;35.35;;
47625;SDS011;33342;45.574;9.252;2022-11-03T00:09:12;50.47;;;36.42;;
47625;SDS011;33342;45.574;9.252;2022-11-03T00:11:41;52.80;;;35.67;;
47625;SDS011;33342;45.574;9.252;2022-11-03T00:14:10;52.17;;;37.20;;
47625;SDS011;33342;45.574;9.252;2022-11-03T00:16:40;38.05;;;19.75;;
47625;SDS011;33342;45.574;9.252;2022-11-03T00:19:07;35.17;;;18.45;;
47625;SDS011;33342;45.574;9.252;2022-11-03T00:21:35;31.58;;;15.18;;
47625;SDS011;33342;45.574;9.252;2022-11-03T00:24:03;50.22;;;38.03;;
47625;SDS011;33342;45.574;9.252;2022-11-03T00:26:31;55.95;;;38.53;;
47625;SDS011;33342;45.574;9.252;2022-11-03T00:29:00;53.00;;;40.33;;
47625;SDS011;33342;45.574;9.252;2022-11-03T00:31:39;53.83;;;39.95;;
47625;SDS011;33342;45.574;9.252;2022-11-03T00:34:08;57.53;;;41.50;;
47625;SDS011;33342;45.574;9.252;2022-11-03T00:36:39;56.50;;;40.85;;
47625;SDS011;33342;45.574;9.252;2022-11-03T00:39:07;57.72;;;40.83;;
47625;SDS011;33342;45.574;9.252;2022-11-03T00:41:36;57.47;;;41.05;;
47625;SDS011;33342;45.574;9.252;2022-11-03T00:44:03;41.10;;;21.20;;
47625;SDS011;33342;45.574;9.252;2022-11-03T00:46:30;42.33;;;20.67;;
47625;SDS011;33342;45.574;9.252;2022-11-03T00:49:01;38.42;;;20.65;;
47625;SDS011;33342;45.574;9.252;2022-11-03T00:51:29;35.83;;;18.13;;
47625;SDS011;33342;45.574;9.252;2022-11-03T00:53:59;38.05;;;19.13;;
47625;SDS011;33342;45.574;9.252;2022-11-03T00:56:29;56.00;;;39.55;;
47625;SDS011;33342;45.574;9.252;2022-11-03T00:59:04;53.08;;;39.67;;
47625;SDS011;33342;45.574;9.252;2022-11-03T01:01:35;59.10;;;41.47;;
47625;SDS011;33342;45.574;9.252;2022-11-03T01:04:13;52.20;;;39.47;;
47625;SDS011;33342;45.574;9.252;2022-11-03T01:07:00;54.05;;;39.78;;
47625;SDS011;33342;45.574;9.252;2022-11-03T01:09:33;59.05;;;41.63;;
47625;SDS011;33342;45.574;9.252;2022-11-03T01:12:09;57.22;;;42.92;;
47625;SDS011;33342;45.574;9.252;2022-11-03T01:14:39;56.45;;;41.85;;
47625;SDS011;33342;45.574;9.252;2022-11-03T01:17:09;59.35;;;42.00;;
47625;SDS011;33342;45.574;9.252;2022-11-03T01:19:37;57.03;;;41.83;;
47625;SDS011;33342;45.574;9.252;2022-11-03T01:22:05;54.63;;;39.60;;
47625;SDS011;33342;45.574;9.252;2022-11-03T01:24:36;37.65;;;20.40;;
47625;SDS011;33342;45.574;9.252;2022-11-03T01:27:07;54.80;;;40.53;;
47625;SDS011;33342;45.574;9.252;2022-11-03T01:29:35;54.85;;;41.00;;
47625;SDS011;33342;45.574;9.252;2022-11-03T01:32:02;32.95;;;19.75;;
47625;SDS011;33342;45.574;9.252;2022-11-03T01:34:29;37.42;;;18.05;;
47625;SDS011;33342;45.574;9.252;2022-11-03T01:36:56;61.47;;;41.88;;
47625;SDS011;33342;45.574;9.252;2022-11-03T01:39:23;60.95;;;42.33;;
47625;SDS011;33342;45.574;9.252;2022-11-03T01:41:51;56.03;;;41.00;;
47625;SDS011;33342;45.574;9.252;2022-11-03T01:44:22;38.63;;;20.35;;
47625;SDS011;33342;45.574;9.252;2022-11-03T01:52:00;60.58;;;43.15;;
47625;SDS011;33342;45.574;9.252;2022-11-03T01:54:31;58.35;;;40.80;;
47625;SDS011;33342;45.574;9.252;2022-11-03T01:57:02;57.22;;;41.78;;
47625;SDS011;33342;45.574;9.252;2022-11-03T01:59:32;42.75;;;21.25;;
47625;SDS011;33342;45.574;9.252;2022-11-03T02:02:00;38.90;;;20.58;;
47625;SDS011;33342;45.574;9.252;2022-11-03T02:04:28;64.38;;;46.15;;
47625;SDS011;33342;45.574;9.252;2022-11-03T02:07:04;41.22;;;23.42;;
47625;SDS011;33342;45.574;9.252;2022-11-03T02:09:36;64.93;;;46.08;;
47625;SDS011;33342;45.574;9.252;2022-11-03T02:12:03;46.03;;;22.73;;
47625;SDS011;33342;45.574;9.252;2022-11-03T02:14:34;70.55;;;46.70;;
47625;SDS011;33342;45.574;9.252;2022-11-03T02:17:06;66.78;;;46.20;;
47625;SDS011;33342;45.574;9.252;2022-11-03T02:28:09;33.30;;;17.80;;
47625;SDS011;33342;45.574;9.252;2022-11-03T02:36:45;74.47;;;46.47;;
47625;SDS011;33342;45.574;9.252;2022-11-03T02:39:23;76.43;;;46.83;;
47625;SDS011;33342;45.574;9.252;2022-11-03T02:41:55;81.53;;;48.63;;
47625;SDS011;33342;45.574;9.252;2022-11-03T02:44:24;74.57;;;45.97;;
47625;SDS011;33342;45.574;9.252;2022-11-03T02:46:56;73.60;;;44.25;;
47625;SDS011;33342;45.574;9.252;2022-11-03T02:49:26;79.53;;;46.95;;
47625;SDS011;33342;45.574;9.252;2022-11-03T02:51:59;75.50;;;46.88;;
47625;SDS011;33342;45.574;9.252;2022-11-03T02:57:10;45.60;;;21.75;;
47625;SDS011;33342;45.574;9.252;2022-11-03T02:59:51;77.65;;;47.50;;
47625;SDS011;33342;45.574;9.252;2022-11-03T03:02:34;77.50;;;46.05;;
47625;SDS011;33342;45.574;9.252;2022-11-03T03:05:10;77.00;;;46.55;;
47625;SDS011;33342;45.574;9.252;2022-11-03T03:07:40;71.95;;;45.53;;
47625;SDS011;33342;45.574;9.252;2022-11-03T03:10:19;73.55;;;44.25;;
47625;SDS011;33342;45.574;9.252;2022-11-03T03:12:52;74.55;;;44.00;;
47625;SDS011;33342;45.574;9.252;2022-11-03T03:15:23;73.95;;;43.10;;
47625;SDS011;33342;45.574;9.252;2022-11-03T03:18:03;67.68;;;44.15;;
47625;SDS011;33342;45.574;9.252;2022-11-03T03:20:57;43.13;;;21.58;;
47625;SDS011;33342;45.574;9.252;2022-11-03T03:23:34;48.60;;;21.27;;
47625;SDS011;33342;45.574;9.252;2022-11-03T03:26:04;70.35;;;44.35;;
47625;SDS011;33342;45.574;9.252;2022-11-03T03:31:13;43.13;;;19.55;;
47625;SDS011;33342;45.574;9.252;2022-11-03T03:33:42;47.88;;;21.70;;
47625;SDS011;33342;45.574;9.252;2022-11-03T03:36:14;40.17;;;19.52;;
47625;SDS011;33342;45.574;9.252;2022-11-03T03:38:44;73.18;;;44.42;;
47625;SDS011;33342;45.574;9.252;2022-11-03T03:41:19;43.53;;;21.52;;
47625;SDS011;33342;45.574;9.252;2022-11-03T03:43:51;69.28;;;43.50;;
47625;SDS011;33342;45.574;9.252;2022-11-03T03:46:22;42.75;;;22.02;;
47625;SDS011;33342;45.574;9.252;2022-11-03T03:48:54;44.45;;;20.30;;
47625;SDS011;33342;45.574;9.252;2022-11-03T03:51:22;40.75;;;20.08;;
47625;SDS011;33342;45.574;9.252;2022-11-03T03:53:52;66.80;;;40.88;;
47625;SDS011;33342;45.574;9.252;2022-11-03T03:56:22;68.35;;;41.17;;
47625;SDS011;33342;45.574;9.252;2022-11-03T03:58:59;69.80;;;43.38;;
47625;SDS011;33342;45.574;9.252;2022-11-03T04:01:26;67.68;;;42.35;;
47625;SDS011;33342;45.574;9.252;2022-11-03T04:03:54;71.15;;;42.10;;
47625;SDS011;33342;45.574;9.252;2022-11-03T04:06:21;71.22;;;42.70;;
47625;SDS011;33342;45.574;9.252;2022-11-03T04:08:48;38.80;;;19.00;;
47625;SDS011;33342;45.574;9.252;2022-11-03T04:11:15;37.58;;;17.08;;
47625;SDS011;33342;45.574;9.252;2022-11-03T04:14:02;40.50;;;19.92;;
47625;SDS011;33342;45.574;9.252;2022-11-03T04:16:47;64.45;;;40.72;;
47625;SDS011;33342;45.574;9.252;2022-11-03T04:19:33;44.30;;;20.88;;
47625;SDS011;33342;45.574;9.252;2022-11-03T04:22:19;62.53;;;40.80;;
47625;SDS011;33342;45.574;9.252;2022-11-03T04:24:48;62.42;;;40.10;;
47625;SDS011;33342;45.574;9.252;2022-11-03T04:27:32;35.85;;;17.35;;
47625;SDS011;33342;45.574;9.252;2022-11-03T04:30:19;39.20;;;18.52;;
47625;SDS011;33342;45.574;9.252;2022-11-03T04:32:47;39.97;;;18.10;;
47625;SDS011;33342;45.574;9.252;2022-11-03T04:35:21;53.60;;;35.90;;
47625;SDS011;33342;45.574;9.252;2022-11-03T04:37:53;57.15;;;36.13;;
47625;SDS011;33342;45.574;9.252;2022-11-03T04:40:27;60.47;;;37.47;;
47625;SDS011;33342;45.574;9.252;2022-11-03T04:42:54;53.85;;;34.95;;
47625;SDS011;33342;45.574;9.252;2022-11-03T04:45:29;57.47;;;34.00;;
47625;SDS011;33342;45.574;9.252;2022-11-03T04:47:57;56.88;;;33.70;;
47625;SDS011;33342;45.574;9.252;2022-11-03T04:50:27;56.53;;;35.35;;
47625;SDS011;33342;45.574;9.252;2022-11-03T04:52:54;58.58;;;34.63;;
47625;SDS011;33342;45.574;9.252;2022-11-03T04:55:25;37.78;;;17.67;;
47625;SDS011;33342;45.574;9.252;2022-11-03T04:57:56;50.88;;;33.28;;
47625;SDS011;33342;45.574;9.252;2022-11-03T05:00:25;47.08;;;30.75;;
47625;SDS011;33342;45.574;9.252;2022-11-03T05:02:52;46.72;;;31.50;;
47625;SDS011;33342;45.574;9.252;2022-11-03T05:05:22;49.70;;;32.88;;
47625;SDS011;33342;45.574;9.252;2022-11-03T05:07:52;34.22;;;15.68;;
47625;SDS011;33342;45.574;9.252;2022-11-03T05:10:25;24.20;;;13.40;;
47625;SDS011;33342;45.574;9.252;2022-11-03T05:12:54;42.30;;;30.48;;
47625;SDS011;33342;45.574;9.252;2022-11-03T05:15:26;46.80;;;30.45;;
47625;SDS011;33342;45.574;9.252;2022-11-03T05:17:57;49.67;;;32.38;;
47625;SDS011;33342;45.574;9.252;2022-11-03T05:20:30;54.30;;;32.00;;
47625;SDS011;33342;45.574;9.252;2022-11-03T05:23:02;50.10;;;31.70;;
47625;SDS011;33342;45.574;9.252;2022-11-03T05:25:36;47.35;;;31.38;;
47625;SDS011;33342;45.574;9.252;2022-11-03T05:28:25;33.58;;;15.90;;
47625;SDS011;33342;45.574;9.252;2022-11-03T05:30:56;36.60;;;15.13;;
47625;SDS011;33342;45.574;9.252;2022-11-03T05:33:35;28.70;;;15.02;;
47625;SDS011;33342;45.574;9.252;2022-11-03T05:36:19;28.08;;;14.70;;
47625;SDS011;33342;45.574;9.252;2022-11-03T05:38:47;41.75;;;28.38;;
47625;SDS011;33342;45.574;9.252;2022-11-03T05:41:20;27.17;;;14.45;;
47625;SDS011;33342;45.574;9.252;2022-11-03T05:44:36;21.15;;;12.15;;
47625;SDS011;33342;45.574;9.252;2022-11-03T05:46:51;24.33;;;14.10;;
47625;SDS011;33342;45.574;9.252;2022-11-03T05:49:18;33.08;;;14.73;;
47625;SDS011;33342;45.574;9.252;2022-11-03T05:51:45;29.80;;;16.70;;
47625;SDS011;33342;45.574;9.252;2022-11-03T05:54:23;45.90;;;29.50;;
47625;SDS011;33342;45.574;9.252;2022-11-03T05:56:52;50.40;;;32.35;;
47625;SDS011;33342;45.574;9.252;2022-11-03T05:59:25;29.95;;;17.50;;
47625;SDS011;33342;45.574;9.252;2022-11-03T06:01:54;29.35;;;17.13;;
47625;SDS011;33342;45.574;9.252;2022-11-03T06:04:31;27.55;;;12.05;;
47625;SDS011;33342;45.574;9.252;2022-11-03T06:07:04;52.90;;;32.80;;
47625;SDS011;33342;45.574;9.252;2022-11-03T06:09:54;57.90;;;35.63;;
47625;SDS011;33342;45.574;9.252;2022-11-03T06:12:23;56.10;;;35.70;;
47625;SDS011;33342;45.574;9.252;2022-11-03T06:14:51;38.97;;;17.98;;
47625;SDS011;33342;45.574;9.252;2022-11-03T06:17:22;61.80;;;37.65;;
47625;SDS011;33342;45.574;9.252;2022-11-03T06:19:52;60.50;;;36.75;;
47625;SDS011;33342;45.574;9.252;2022-11-03T06:22:30;65.25;;;40.55;;
47625;SDS011;33342;45.574;9.252;2022-11-03T06:25:19;60.17;;;37.70;;
47625;SDS011;33342;45.574;9.252;2022-11-03T06:27:51;62.78;;;38.58;;
47625;SDS011;33342;45.574;9.252;2022-11-03T06:30:27;61.72;;;40.08;;
47625;SDS011;33342;45.574;9.252;2022-11-03T06:33:00;58.97;;;39.38;;
47625;SDS011;33342;45.574;9.252;2022-11-03T06:35:30;40.13;;;20.27;;
47625;SDS011;33342;45.574;9.252;2022-11-03T06:37:57;67.88;;;41.35;;
47625;SDS011;33342;45.574;9.252;2022-11-03T06:40:32;67.30;;;42.83;;
47625;SDS011;33342;45.574;9.252;2022-11-03T06:45:49;69.95;;;42.95;;
47625;SDS011;33342;45.574;9.252;2022-11-03T06:48:22;65.93;;;41.85;;
47625;SDS011;33342;45.574;9.252;2022-11-03T06:50:59;50.58;;;22.08;;
47625;SDS011;33342;45.574;9.252;2022-11-03T06:53:28;68.05;;;41.80;;
47625;SDS011;33342;45.574;9.252;2022-11-03T06:55:58;64.68;;;42.22;;
47625;SDS011;33342;45.574;9.252;2022-11-03T06:58:31;65.15;;;42.00;;
47625;SDS011;33342;45.574;9.252;2022-11-03T07:01:02;64.28;;;39.40;;
47625;SDS011;33342;45.574;9.252;2022-11-03T07:03:41;41.10;;;21.45;;
47625;SDS011;33342;45.574;9.252;2022-11-03T07:08:47;50.97;;;35.95;;
47625;SDS011;33342;45.574;9.252;2022-11-03T07:13:46;55.35;;;37.22;;
47625;SDS011;33342;45.574;9.252;2022-11-03T07:16:18;37.80;;;27.88;;
47625;SDS011;33342;45.574;9.252;2022-11-03T07:19:02;39.95;;;30.73;;
47625;SDS011;33342;45.574;9.252;2022-11-03T07:24:14;45.83;;;33.00;;
47625;SDS011;33342;45.574;9.252;2022-11-03T07:26:57;31.10;;;14.82;;
47625;SDS011;33342;45.574;9.252;2022-11-03T07:29:39;23.42;;;12.05;;
47625;SDS011;33342;45.574;9.252;2022-11-03T07:32:19;21.80;;;11.25;;
47625;SDS011;33342;45.574;9.252;2022-11-03T07:34:50;40.50;;;30.70;;
47625;SDS011;33342;45.574;9.252;2022-11-03T07:37:20;29.67;;;13.80;;
47625;SDS011;33342;45.574;9.252;2022-11-03T07:39:49;28.67;;;15.32;;
47625;SDS011;33342;45.574;9.252;2022-11-03T07:42:21;30.67;;;17.00;;
47625;SDS011;33342;45.574;9.252;2022-11-03T07:44:51;28.00;;;14.77;;
47625;SDS011;33342;45.574;9.252;2022-11-03T07:47:21;32.30;;;17.42;;
47625;SDS011;33342;45.574;9.252;2022-11-03T07:49:51;32.22;;;17.05;;
47625;SDS011;33342;45.574;9.252;2022-11-03T07:52:20;36.75;;;18.88;;
47625;SDS011;33342;45.574;9.252;2022-11-03T07:54:49;47.72;;;32.35;;
47625;SDS011;33342;45.574;9.252;2022-11-03T07:57:29;44.55;;;31.42;;
47625;SDS011;33342;45.574;9.252;2022-11-03T08:00:00;34.10;;;18.95;;
47625;SDS011;33342;45.574;9.252;2022-11-03T08:02:41;30.20;;;15.45;;
47625;SDS011;33342;45.574;9.252;2022-11-03T08:05:14;27.45;;;15.38;;
47625;SDS011;33342;45.574;9.252;2022-11-03T08:07:41;34.15;;;15.65;;
47625;SDS011;33342;45.574;9.252;2022-11-03T08:10:09;29.83;;;16.05;;
47625;SDS011;33342;45.574;9.252;2022-11-03T08:12:36;28.00;;;15.00;;
47625;SDS011;33342;45.574;9.252;2022-11-03T08:15:03;28.13;;;15.85;;
47625;SDS011;33342;45.574;9.252;2022-11-03T08:17:30;30.02;;;15.77;;
47625;SDS011;33342;45.574;9.252;2022-11-03T08:19:57;30.13;;;16.48;;
47625;SDS011;33342;45.574;9.252;2022-11-03T08:22:24;30.45;;;16.13;;
47625;SDS011;33342;45.574;9.252;2022-11-03T08:24:51;30.70;;;16.90;;
47625;SDS011;33342;45.574;9.252;2022-11-03T08:27:18;50.15;;;31.73;;
47625;SDS011;33342;45.574;9.252;2022-11-03T08:29:45;37.85;;;18.55;;
47625;SDS011;33342;45.574;9.252;2022-11-03T08:32:12;43.25;;;19.08;;
47625;SDS011;33342;45.574;9.252;2022-11-03T08:34:39;55.53;;;34.95;;
47625;SDS011;33342;45.574;9.252;2022-11-03T08:37:06;45.25;;;20.98;;
47625;SDS011;33342;45.574;9.252;2022-11-03T08:39:33;35.47;;;19.42;;
47625;SDS011;33342;45.574;9.252;2022-11-03T08:42:01;48.95;;;30.85;;
47625;SDS011;33342;45.574;9.252;2022-11-03T08:44:28;40.38;;;19.27;;
47625;SDS011;33342;45.574;9.252;2022-11-03T08:46:55;42.50;;;20.33;;
47625;SDS011;33342;45.574;9.252;2022-11-03T08:49:23;49.00;;;30.35;;
47625;SDS011;33342;45.574;9.252;2022-11-03T08:51:50;51.80;;;32.85;;
47625;SDS011;33342;45.574;9.252;2022-11-03T08:54:17;54.33;;;30.38;;
47625;SDS011;33342;45.574;9.252;2022-11-03T08:56:43;44.53;;;20.85;;
47625;SDS011;33342;45.574;9.252;2022-11-03T08:59:12;45.83;;;20.38;;
47625;SDS011;33342;45.574;9.252;2022-11-03T09:01:39;54.45;;;35.25;;
47625;SDS011;33342;45.574;9.252;2022-11-03T09:04:06;43.08;;;24.40;;
47625;SDS011;33342;45.574;9.252;2022-11-03T09:06:33;46.75;;;20.45;;
47625;SDS011;33342;45.574;9.252;2022-11-03T09:09:00;41.65;;;19.45;;
47625;SDS011;33342;45.574;9.252;2022-11-03T09:11:47;50.90;;;33.30;;
47625;SDS011;33342;45.574;9.252;2022-11-03T09:14:14;49.35;;;22.02;;
47625;SDS011;33342;45.574;9.252;2022-11-03T09:16:42;41.17;;;19.38;;
47625;SDS011;33342;45.574;9.252;2022-11-03T09:19:09;39.13;;;20.13;;
47625;SDS011;33342;45.574;9.252;2022-11-03T09:21:36;56.05;;;32.67;;
47625;SDS011;33342;45.574;9.252;2022-11-03T09:24:03;45.15;;;22.05;;
47625;SDS011;33342;45.574;9.252;2022-11-03T09:26:31;42.47;;;20.67;;
47625;SDS011;33342;45.574;9.252;2022-11-03T09:28:58;49.13;;;21.23;;
47625;SDS011;33342;45.574;9.252;2022-11-03T09:31:24;44.25;;;20.10;;
47625;SDS011;33342;45.574;9.252;2022-11-03T09:33:53;44.53;;;20.23;;
47625;SDS011;33342;45.574;9.252;2022-11-03T09:36:20;44.75;;;19.60;;
47625;SDS011;33342;45.574;9.252;2022-11-03T09:38:47;58.75;;;31.75;;
47625;SDS011;33342;45.574;9.252;2022-11-03T09:41:14;44.20;;;19.88;;
47625;SDS011;33342;45.574;9.252;2022-11-03T09:44:05;44.17;;;18.77;;
47625;SDS011;33342;45.574;9.252;2022-11-03T09:46:32;49.58;;;18.42;;
47625;SDS011;33342;45.574;9.252;2022-11-03T09:49:01;47.88;;;19.63;;
47625;SDS011;33342;45.574;9.252;2022-11-03T09:51:28;54.60;;;30.10;;
47625;SDS011;33342;45.574;9.252;2022-11-03T09:53:57;46.63;;;19.98;;
47625;SDS011;33342;45.574;9.252;2022-11-03T09:56:28;46.90;;;20.90;;
47625;SDS011;33342;45.574;9.252;2022-11-03T09:58:56;62.80;;;33.20;;
47625;SDS011;33342;45.574;9.252;2022-11-03T10:01:25;48.53;;;19.00;;
47625;SDS011;33342;45.574;9.252;2022-11-03T10:03:53;49.38;;;23.10;;
47625;SDS011;33342;45.574;9.252;2022-11-03T10:06:24;76.35;;;33.28;;
47625;SDS011;33342;45.574;9.252;2022-11-03T10:08:51;49.80;;;20.08;;
47625;SDS011;33342;45.574;9.252;2022-11-03T10:11:18;63.85;;;32.28;;
47625;SDS011;33342;45.574;9.252;2022-11-03T10:13:46;47.35;;;19.38;;
47625;SDS011;33342;45.574;9.252;2022-11-03T10:16:19;45.47;;;19.83;;
47625;SDS011;33342;45.574;9.252;2022-11-03T10:18:48;57.88;;;32.38;;
47625;SDS011;33342;45.574;9.252;2022-11-03T10:21:26;47.15;;;19.70;;
47625;SDS011;33342;45.574;9.252;2022-11-03T10:23:56;54.30;;;31.23;;
47625;SDS011;33342;45.574;9.252;2022-11-03T10:26:23;38.53;;;19.17;;
47625;SDS011;33342;45.574;9.252;2022-11-03T10:28:57;36.67;;;17.33;;
47625;SDS011;33342;45.574;9.252;2022-11-03T10:34:00;36.58;;;15.15;;
47625;SDS011;33342;45.574;9.252;2022-11-03T10:36:28;47.45;;;27.65;;
47625;SDS011;33342;45.574;9.252;2022-11-03T10:38:57;34.67;;;16.83;;
47625;SDS011;33342;45.574;9.252;2022-11-03T10:41:26;35.90;;;17.35;;
47625;SDS011;33342;45.574;9.252;2022-11-03T10:44:05;47.63;;;28.20;;
47625;SDS011;33342;45.574;9.252;2022-11-03T10:49:52;40.65;;;26.40;;
47625;SDS011;33342;45.574;9.252;2022-11-03T10:52:21;36.13;;;18.02;;
47625;SDS011;33342;45.574;9.252;2022-11-03T10:54:51;46.25;;;27.88;;
47625;SDS011;33342;45.574;9.252;2022-11-03T10:57:20;41.80;;;18.85;;
47625;SDS011;33342;45.574;9.252;2022-11-03T10:59:49;42.70;;;25.85;;
47625;SDS011;33342;45.574;9.252;2022-11-03T11:02:19;35.60;;;17.23;;
47625;SDS011;33342;45.574;9.252;2022-11-03T11:04:53;43.88;;;26.80;;
47625;SDS011;33342;45.574;9.252;2022-11-03T11:07:31;33.50;;;15.88;;
47625;SDS011;33342;45.574;9.252;2022-11-03T11:10:13;46.03;;;28.38;;
47625;SDS011;33342;45.574;9.252;2022-11-03T11:20:56;47.28;;;27.98;;
47625;SDS011;33342;45.574;9.252;2022-11-03T11:29:32;40.50;;;26.25;;
47625;SDS011;33342;45.574;9.252;2022-11-03T11:31:37;37.75;;;16.95;;
47625;SDS011;33342;45.574;9.252;2022-11-03T11:36:35;41.28;;;26.00;;
47625;SDS011;33342;45.574;9.252;2022-11-03T11:39:08;35.25;;;17.30;;
47625;SDS011;33342;45.574;9.252;2022-11-03T11:42:09;33.72;;;15.70;;
47625;SDS011;33342;45.574;9.252;2022-11-03T11:57:58;40.47;;;26.10;;
47625;SDS011;33342;45.574;9.252;2022-11-03T12:00:28;34.28;;;16.85;;
47625;SDS011;33342;45.574;9.252;2022-11-03T12:02:58;44.67;;;27.95;;
47625;SDS011;33342;45.574;9.252;2022-11-03T12:05:28;44.63;;;28.17;;
47625;SDS011;33342;45.574;9.252;2022-11-03T12:07:59;43.95;;;26.60;;
47625;SDS011;33342;45.574;9.252;2022-11-03T12:10:27;43.22;;;27.02;;
47625;SDS011;33342;45.574;9.252;2022-11-03T12:12:57;42.83;;;26.98;;
47625;SDS011;33342;45.574;9.252;2022-11-03T12:18:30;45.55;;;27.80;;
47625;SDS011;33342;45.574;9.252;2022-11-03T12:21:08;46.92;;;27.77;;
47625;SDS011;33342;45.574;9.252;2022-11-03T12:23:56;43.03;;;26.98;;
47625;SDS011;33342;45.574;9.252;2022-11-03T12:28:52;44.45;;;25.67;;
47625;SDS011;33342;45.574;9.252;2022-11-03T12:31:20;39.95;;;25.10;;
47625;SDS011;33342;45.574;9.252;2022-11-03T12:33:47;41.47;;;26.42;;
47625;SDS011;33342;45.574;9.252;2022-11-03T12:36:14;40.95;;;25.42;;
47625;SDS011;33342;45.574;9.252;2022-11-03T12:38:40;34.67;;;17.27;;
47625;SDS011;33342;45.574;9.252;2022-11-03T12:41:07;40.53;;;24.73;;
47625;SDS011;33342;45.574;9.252;2022-11-03T12:43:47;31.70;;;16.52;;
47625;SDS011;33342;45.574;9.252;2022-11-03T12:46:15;34.10;;;15.23;;
47625;SDS011;33342;45.574;9.252;2022-11-03T12:48:43;34.72;;;22.80;;
47625;SDS011;33342;45.574;9.252;2022-11-03T12:51:16;33.63;;;22.40;;
47625;SDS011;33342;45.574;9.252;2022-11-03T12:53:44;33.83;;;22.70;;
47625;SDS011;33342;45.574;9.252;2022-11-03T12:56:12;42.85;;;25.63;;
47625;SDS011;33342;45.574;9.252;2022-11-03T12:58:40;33.70;;;15.15;;
47625;SDS011;33342;45.574;9.252;2022-11-03T13:01:07;31.70;;;14.73;;
47625;SDS011;33342;45.574;9.252;2022-11-03T13:03:35;38.58;;;24.98;;
47625;SDS011;33342;45.574;9.252;2022-11-03T13:06:03;38.65;;;23.77;;
47625;SDS011;33342;45.574;9.252;2022-11-03T13:08:30;43.92;;;25.42;;
47625;SDS011;33342;45.574;9.252;2022-11-03T13:10:58;40.03;;;24.10;;
47625;SDS011;33342;45.574;9.252;2022-11-03T13:13:25;39.95;;;23.92;;
47625;SDS011;33342;45.574;9.252;2022-11-03T13:15:52;37.92;;;24.65;;
47625;SDS011;33342;45.574;9.252;2022-11-03T13:18:19;40.55;;;25.30;;
47625;SDS011;33342;45.574;9.252;2022-11-03T13:20:47;39.47;;;24.70;;
47625;SDS011;33342;45.574;9.252;2022-11-03T13:23:15;42.20;;;26.08;;
47625;SDS011;33342;45.574;9.252;2022-11-03T13:25:48;38.63;;;24.42;;
47625;SDS011;33342;45.574;9.252;2022-11-03T13:28:15;48.78;;;25.35;;
47625;SDS011;33342;45.574;9.252;2022-11-03T13:30:42;39.42;;;24.50;;
47625;SDS011;33342;45.574;9.252;2022-11-03T13:33:09;45.58;;;22.92;;
47625;SDS011;33342;45.574;9.252;2022-11-03T13:35:36;40.55;;;23.52;;
47625;SDS011;33342;45.574;9.252;2022-11-03T13:38:03;39.90;;;23.30;;
47625;SDS011;33342;45.574;9.252;2022-11-03T13:40:30;38.60;;;24.00;;
47625;SDS011;33342;45.574;9.252;2022-11-03T13:43:17;39.47;;;23.95;;
47625;SDS011;33342;45.574;9.252;2022-11-03T13:45:44;37.92;;;24.08;;
47625;SDS011;33342;45.574;9.252;2022-11-03T13:48:11;39.33;;;23.77;;
47625;SDS011;33342;45.574;9.252;2022-11-03T13:50:58;42.80;;;24.30;;
47625;SDS011;33342;45.574;9.252;2022-11-03T13:53:26;35.22;;;23.02;;
47625;SDS011;33342;45.574;9.252;2022-11-03T13:56:13;37.53;;;22.98;;
47625;SDS011;33342;45.574;9.252;2022-11-03T13:58:47;37.05;;;22.13;;
47625;SDS011;33342;45.574;9.252;2022-11-03T14:01:34;32.85;;;15.00;;
47625;SDS011;33342;45.574;9.252;2022-11-03T14:04:02;39.38;;;24.00;;
47625;SDS011;33342;45.574;9.252;2022-11-03T14:06:49;36.90;;;22.45;;
47625;SDS011;33342;45.574;9.252;2022-11-03T14:09:17;36.30;;;23.17;;
47625;SDS011;33342;45.574;9.252;2022-11-03T14:11:44;42.78;;;23.88;;
47625;SDS011;33342;45.574;9.252;2022-11-03T14:16:57;36.60;;;20.45;;
47625;SDS011;33342;45.574;9.252;2022-11-03T14:19:24;35.55;;;23.75;;
47625;SDS011;33342;45.574;9.252;2022-11-03T14:22:03;40.00;;;25.08;;
47625;SDS011;33342;45.574;9.252;2022-11-03T14:24:30;33.83;;;15.90;;
47625;SDS011;33342;45.574;9.252;2022-11-03T14:26:57;38.08;;;22.95;;
47625;SDS011;33342;45.574;9.252;2022-11-03T14:29:24;41.40;;;24.08;;
47625;SDS011;33342;45.574;9.252;2022-11-03T14:31:52;40.53;;;24.73;;
47625;SDS011;33342;45.574;9.252;2022-11-03T14:34:20;39.90;;;25.10;;
47625;SDS011;33342;45.574;9.252;2022-11-03T14:36:47;42.88;;;26.50;;
47625;SDS011;33342;45.574;9.252;2022-11-03T14:39:14;41.63;;;23.90;;
47625;SDS011;33342;45.574;9.252;2022-11-03T14:41:41;45.15;;;25.23;;
47625;SDS011;33342;45.574;9.252;2022-11-03T14:44:44;40.38;;;24.80;;
47625;SDS011;33342;45.574;9.252;2022-11-03T14:47:12;36.97;;;17.60;;
47625;SDS011;33342;45.574;9.252;2022-11-03T14:49:44;32.25;;;15.70;;
47625;SDS011;33342;45.574;9.252;2022-11-03T14:52:12;43.22;;;25.38;;
47625;SDS011;33342;45.574;9.252;2022-11-03T14:54:39;40.65;;;25.02;;
47625;SDS011;33342;45.574;9.252;2022-11-03T14:57:07;46.92;;;25.63;;
47625;SDS011;33342;45.574;9.252;2022-11-03T14:59:35;44.92;;;26.20;;
47625;SDS011;33342;45.574;9.252;2022-11-03T15:02:02;44.55;;;26.52;;
47625;SDS011;33342;45.574;9.252;2022-11-03T15:04:30;46.38;;;26.80;;
47625;SDS011;33342;45.574;9.252;2022-11-03T15:06:57;42.67;;;26.08;;
47625;SDS011;33342;45.574;9.252;2022-11-03T15:09:24;38.75;;;18.45;;
47625;SDS011;33342;45.574;9.252;2022-11-03T15:11:51;44.83;;;26.17;;
47625;SDS011;33342;45.574;9.252;2022-11-03T15:14:18;46.45;;;27.30;;
47625;SDS011;33342;45.574;9.252;2022-11-03T15:16:45;35.85;;;15.75;;
47625;SDS011;33342;45.574;9.252;2022-11-03T15:19:13;47.33;;;26.70;;
47625;SDS011;33342;45.574;9.252;2022-11-03T15:21:40;49.30;;;28.13;;
47625;SDS011;33342;45.574;9.252;2022-11-03T15:24:07;48.28;;;28.08;;
47625;SDS011;33342;45.574;9.252;2022-11-03T15:26:54;53.03;;;30.15;;
47625;SDS011;33342;45.574;9.252;2022-11-03T15:29:21;47.95;;;18.52;;
47625;SDS011;33342;45.574;9.252;2022-11-03T15:31:49;49.17;;;27.83;;
47625;SDS011;33342;45.574;9.252;2022-11-03T15:34:17;41.40;;;17.77;;
47625;SDS011;33342;45.574;9.252;2022-11-03T15:36:44;52.20;;;27.40;;
47625;SDS011;33342;45.574;9.252;2022-11-03T15:39:11;49.78;;;27.33;;
47625;SDS011;33342;45.574;9.252;2022-11-03T15:41:39;38.47;;;18.42;;
47625;SDS011;33342;45.574;9.252;2022-11-03T15:44:06;52.83;;;27.92;;
47625;SDS011;33342;45.574;9.252;2022-11-03T15:46:33;42.33;;;18.58;;
47625;SDS011;33342;45.574;9.252;2022-11-03T15:49:01;45.20;;;18.48;;
47625;SDS011;33342;45.574;9.252;2022-11-03T15:51:28;52.42;;;29.88;;
47625;SDS011;33342;45.574;9.252;2022-11-03T15:53:55;52.95;;;29.90;;
47625;SDS011;33342;45.574;9.252;2022-11-03T15:56:27;52.17;;;28.77;;
47625;SDS011;33342;45.574;9.252;2022-11-03T15:58:55;45.70;;;20.67;;
47625;SDS011;33342;45.574;9.252;2022-11-03T16:01:22;56.97;;;29.73;;
47625;SDS011;33342;45.574;9.252;2022-11-03T16:03:49;40.58;;;17.50;;